Time;durP1;ratioP1;P1;durP2;ratioP2;P2;SDS_P1;SDS_P2;PMS_P1;PMS_P2;Temp;Humidity;BMP_temperature;BMP_pressure;BME280_temperature;BME280_humidity;BME280_pressure;Samples;Min_cycle;Max_cycle;Signal;HPM_P1;HPM_P2
2021/12/13 00:00:31;;;;;;;;;;;;;;;16.04;65.02;102072.75;1054243;28;2146;-64
2021/12/13 00:01:21;;;;;;;;;;;;;;;16.05;65.00;102065.53;1054169;28;637;-64
2021/12/13 00:02:12;;;;;;;;;;;;;;;16.04;64.71;102069.19;1049060;28;727;-64
2021/12/13 00:03:02;;;;;;;;;;;;;;;16.04;64.84;102061.13;1050368;28;664;-64
2021/12/13 00:03:53;;;;;;;;;;;;;;;16.04;64.85;102072.75;1054601;28;763;-64
2021/12/13 00:04:43;;;;;;;;;;;;;;;16.03;64.62;102073.72;1054162;28;684;-64
2021/12/13 00:05:34;;;;;;;;;;;;;;;16.03;64.94;102071.03;1054233;28;602;-64
2021/12/13 00:06:24;;;;;;;;;;;;;;;16.01;65.00;102064.88;1054982;28;828;-64
2021/12/13 00:07:14;;;;;;;;;;;;;;;16.02;64.98;102063.91;1054255;28;1955;-64
2021/12/13 00:08:05;;;;;;;;;;;;;;;16.02;65.26;102065.75;1054129;28;738;-64
2021/12/13 00:08:55;;;;;;;;;;;;;;;16.01;64.81;102059.50;1054139;28;671;-64
2021/12/13 00:09:46;;;;;;;;;;;;;;;16.02;65.07;102069.28;1054197;28;609;-64
2021/12/13 00:10:36;;;;;;;;;;;;;;;16.01;65.10;102070.25;1054064;28;746;-64
2021/12/13 00:11:27;;;;;;;;;;;;;;;16.01;65.00;102064.03;1054235;28;756;-64
2021/12/13 00:12:17;;;;;;;;;;;;;;;16.00;65.06;102071.22;1054085;28;739;-64
2021/12/13 00:13:07;;;;;;;;;;;;;;;16.00;64.93;102071.22;1054193;28;632;-64
2021/12/13 00:13:58;;;;;;;;;;;;;;;16.00;64.94;102070.38;1054197;28;640;-64
2021/12/13 00:14:48;;;;;;;;;;;;;;;15.99;64.80;102069.50;1054077;28;856;-64
2021/12/13 00:15:39;;;;;;;;;;;;;;;15.99;64.89;102066.81;1049869;28;755;-64
2021/12/13 00:16:29;;;;;;;;;;;;;;;16.00;65.24;102064.97;1048881;28;1140;-64
2021/12/13 00:17:20;;;;;;;;;;;;;;;15.99;64.67;102069.50;1049276;28;707;-64
2021/12/13 00:18:11;;;;;;;;;;;;;;;15.99;64.57;102077.56;1049847;28;707;-64
2021/12/13 00:19:01;;;;;;;;;;;;;;;16.00;64.80;102073.06;1053510;28;626;-64
2021/12/13 00:19:52;;;;;;;;;;;;;;;15.99;64.74;102069.50;1053626;28;731;-64
2021/12/13 00:20:44;;;;;;;;;;;;;;;15.98;64.77;102075.84;1053509;28;750;-64
2021/12/13 00:21:36;;;;;;;;;;;;;;;15.98;64.70;102082.06;1053488;28;687;-64
2021/12/13 00:22:27;;;;;;;;;;;;;;;15.99;64.21;102082.94;1054026;28;813;-64
2021/12/13 00:23:17;;;;;;;;;;;;;;;15.98;64.91;102082.06;1053593;28;699;-64
2021/12/13 00:24:08;;;;;;;;;;;;;;;15.97;65.00;102079.50;1053743;28;747;-64
2021/12/13 00:24:58;;;;;;;;;;;;;;;15.97;64.83;102079.50;1053406;28;910;-64
2021/12/13 00:25:48;;;;;;;;;;;;;;;15.97;64.92;102074.97;1053516;28;671;-64
2021/12/13 00:26:39;;;;;;;;;;;;;;;15.97;64.82;102074.97;1053361;28;748;-64
2021/12/13 00:27:29;;;;;;;;;;;;;;;15.96;65.28;102077.78;1053253;28;1906;-64
2021/12/13 00:28:20;;;;;;;;;;;;;;;15.95;65.13;102071.53;1053463;28;751;-64
2021/12/13 00:29:10;;;;;;;;;;;;;;;15.96;64.31;102077.78;1054140;28;849;-64
2021/12/13 00:30:01;;;;;;;;;;;;;;;15.96;64.97;102077.78;1053716;28;750;-64
2021/12/13 00:30:51;;;;;;;;;;;;;;;15.95;64.73;102073.34;1053523;28;691;-64
2021/12/13 00:31:41;;;;;;;;;;;;;;;15.95;64.75;102076.03;1053498;28;668;-64
2021/12/13 00:32:32;;;;;;;;;;;;;;;15.95;64.73;102070.66;1053673;28;692;-65
2021/12/13 00:33:22;;;;;;;;;;;;;;;15.95;64.51;102082.28;1053423;28;799;-65
2021/12/13 00:34:13;;;;;;;;;;;;;;;15.94;64.77;102077.03;1048532;28;676;-64
2021/12/13 00:35:03;;;;;;;;;;;;;;;15.93;64.73;102081.56;1048354;28;680;-65
2021/12/13 00:35:53;;;;;;;;;;;;;;;15.94;64.47;102079.72;1052426;28;672;-64
2021/12/13 00:36:44;;;;;;;;;;;;;;;15.93;65.04;102078.88;1053640;28;633;-64
2021/12/13 00:37:35;;;;;;;;;;;;;;;15.92;64.60;102077.13;1053381;28;760;-65
2021/12/13 00:38:25;;;;;;;;;;;;;;;15.93;64.66;102088.75;1052892;28;713;-65
2021/12/13 00:39:16;;;;;;;;;;;;;;;15.93;64.51;102089.63;1053612;28;685;-65
2021/12/13 00:40:06;;;;;;;;;;;;;;;15.92;64.83;102093.28;1048158;28;987;-64
2021/12/13 00:40:57;;;;;;;;;;;;;;;15.92;64.85;102089.72;1048409;28;804;-64
2021/12/13 00:41:47;;;;;;;;;;;;;;;15.92;64.90;102090.59;1052078;28;861;-64
2021/12/13 00:42:37;;;;;;;;;;;;;;;15.91;64.97;102099.59;1053521;28;678;-64
2021/12/13 00:43:28;;;;;;;;;;;;;;;15.90;64.90;102092.50;1053574;28;753;-64
2021/12/13 00:44:18;;;;;;;;;;;;;;;15.91;64.61;102093.38;1053432;28;683;-64
2021/12/13 00:45:09;;;;;;;;;;;;;;;15.91;64.86;102098.75;1053554;28;656;-63
2021/12/13 00:45:59;;;;;;;;;;;;;;;15.90;64.95;102089.81;1053437;28;714;-64
2021/12/13 00:46:50;;;;;;;;;;;;;;;15.90;64.90;102088.97;1048440;28;670;-64
2021/12/13 00:47:40;;;;;;;;;;;;;;;15.89;65.16;102093.47;1048307;28;788;-64
2021/12/13 00:48:31;;;;;;;;;;;;;;;15.88;64.78;102086.38;1052462;28;720;-65
2021/12/13 00:49:21;;;;;;;;;;;;;;;15.88;65.04;102089.06;1054905;28;1872;-64
2021/12/13 00:50:12;;;;;;;;;;;;;;;15.89;64.97;102084.53;1057586;28;768;-64
2021/12/13 00:51:02;;;;;;;;;;;;;;;15.89;64.91;102093.47;1056998;28;664;-64
2021/12/13 00:51:52;;;;;;;;;;;;;;;15.89;65.40;102093.47;1057913;28;854;-64
2021/12/13 00:52:46;;;;;;;;;;;;;;;15.89;64.99;102087.22;1058612;28;624;-65
2021/12/13 00:53:36;;;;;;;;;;;;;;;15.88;64.83;102082.81;1057489;28;700;-65
2021/12/13 00:54:27;;;;;;;;;;;;;;;15.87;64.81;102079.28;1057540;28;763;-64
2021/12/13 00:55:17;;;;;;;;;;;;;;;15.87;65.08;102083.78;1056966;28;1830;-65
2021/12/13 00:56:08;;;;;;;;;;;;;;;15.88;64.88;102090.88;1057073;28;750;-65
2021/12/13 00:56:58;;;;;;;;;;;;;;;15.88;64.94;102085.50;1056906;28;675;-64
2021/12/13 00:57:49;;;;;;;;;;;;;;;15.87;65.12;102087.34;1057145;28;681;-64
2021/12/13 00:58:39;;;;;;;;;;;;;;;15.87;64.68;102084.66;1056426;28;697;-64
2021/12/13 00:59:30;;;;;;;;;;;;;;;15.87;64.64;102086.47;1057215;28;629;-65
2021/12/13 01:00:20;;;;;;;;;;;;;;;15.87;64.76;102078.41;1057019;28;796;-65
2021/12/13 01:01:11;;;;;;;;;;;;;;;15.86;65.13;102080.22;1057207;28;734;-65
2021/12/13 01:02:01;;;;;;;;;;;;;;;15.86;64.76;102087.44;1056998;28;696;-64
2021/12/13 01:02:52;;;;;;;;;;;;;;;15.87;64.68;102091.84;1054548;28;1832;-62
2021/12/13 01:03:42;;;;;;;;;;;;;;;15.86;64.83;102092.81;1053114;28;705;-62
2021/12/13 01:04:32;;;;;;;;;;;;;;;15.86;64.71;102090.13;1052820;28;840;-63
2021/12/13 01:05:23;;;;;;;;;;;;;;;15.86;64.83;102084.75;1052927;28;742;-63
2021/12/13 01:06:13;;;;;;;;;;;;;;;15.85;65.02;102091.94;1053459;28;664;-63
2021/12/13 01:07:04;;;;;;;;;;;;;;;15.85;64.98;102091.94;1052900;28;719;-63
2021/12/13 01:07:54;;;;;;;;;;;;;;;15.85;65.29;102085.72;1052648;28;790;-63
2021/12/13 01:08:44;;;;;;;;;;;;;;;15.84;64.85;102095.59;1052782;28;822;-63
2021/12/13 01:09:35;;;;;;;;;;;;;;;15.84;64.90;102094.75;1055954;28;1777;-63
2021/12/13 01:10:25;;;;;;;;;;;;;;;15.84;64.90;102100.09;1057006;28;700;-64
2021/12/13 01:11:16;;;;;;;;;;;;;;;15.85;65.03;102099.16;1056433;28;683;-64
2021/12/13 01:12:06;;;;;;;;;;;;;;;15.85;64.78;102101.84;1058068;28;699;-64
2021/12/13 01:12:57;;;;;;;;;;;;;;;15.84;64.89;102100.97;1058128;28;742;-63
2021/12/13 01:13:47;;;;;;;;;;;;;;;15.85;64.73;102101.84;1056563;28;691;-63
2021/12/13 01:14:40;;;;;;;;;;;;;;;15.84;65.57;102108.19;1057321;28;669;-63
2021/12/13 01:15:36;;;;;;;;;;;;;;;15.84;65.21;102102.81;1057944;28;666;-64
2021/12/13 01:17:26;;;;;;;;;;;;;;;15.83;65.02;102106.44;1056263;28;701;-64
2021/12/13 01:18:45;;;;;;;;;;;;;;;15.84;65.05;102105.50;1053529;28;760;-63
2021/12/13 01:19:33;;;;;;;;;;;;;;;15.83;65.39;102107.31;1052491;28;787;-63
2021/12/13 01:20:28;;;;;;;;;;;;;;;15.83;64.85;102103.75;1049365;28;692;-64
2021/12/13 01:21:31;;;;;;;;;;;;;;;15.83;65.33;102109.13;1053449;28;1650;-64
2021/12/13 01:22:41;;;;;;;;;;;;;;;15.83;64.72;102103.75;1053099;28;791;-64
2021/12/13 01:23:46;;;;;;;;;;;;;;;15.81;65.27;102106.56;1053668;28;1770;-65
2021/12/13 01:26:00;;;;;;;;;;;;;;;15.82;65.21;102115.47;1056557;28;712;-64
2021/12/13 01:26:51;;;;;;;;;;;;;;;15.80;64.42;102112.03;1057107;28;814;-65
2021/12/13 01:27:41;;;;;;;;;;;;;;;15.81;65.18;102119.13;1057003;28;714;-65
2021/12/13 01:28:32;;;;;;;;;;;;;;;15.80;65.19;102114.72;1056930;28;648;-65
2021/12/13 01:29:22;;;;;;;;;;;;;;;15.80;65.07;102114.72;1056350;28;755;-65
2021/12/13 01:30:12;;;;;;;;;;;;;;;15.79;65.12;102111.16;1057879;28;1377;-65
2021/12/13 01:31:03;;;;;;;;;;;;;;;15.80;65.51;102115.56;1053927;28;675;-66
2021/12/13 01:31:53;;;;;;;;;;;;;;;15.80;65.14;102109.34;1053266;28;823;-65
2021/12/13 01:32:44;;;;;;;;;;;;;;;15.79;65.09;102113.00;1048224;28;736;-65
2021/12/13 01:33:34;;;;;;;;;;;;;;;15.79;65.31;102113.00;1048135;28;850;-65
2021/12/13 01:34:25;;;;;;;;;;;;;;;15.78;64.88;102117.50;1053083;28;715;-65
2021/12/13 01:35:15;;;;;;;;;;;;;;;15.78;64.64;102112.13;1052014;28;774;-66
2021/12/13 01:36:06;;;;;;;;;;;;;;;15.80;65.13;102117.41;1053259;28;650;-66
2021/12/13 01:37:00;;;;;;;;;;;;;;;15.79;65.30;102115.69;1053051;28;783;-66
2021/12/13 01:37:53;;;;;;;;;;;;;;;15.79;65.28;102123.75;1052535;28;777;-65
2021/12/13 01:38:45;;;;;;;;;;;;;;;15.78;65.22;102117.50;1053256;28;618;-66
2021/12/13 01:39:35;;;;;;;;;;;;;;;15.79;65.20;102127.28;1053401;28;653;-65
2021/12/13 01:40:25;;;;;;;;;;;;;;;15.77;65.38;102121.16;1053245;28;668;-62
2021/12/13 01:41:16;;;;;;;;;;;;;;;15.78;64.99;102119.31;1053459;28;763;-65
2021/12/13 01:42:06;;;;;;;;;;;;;;;15.77;64.94;102121.16;1053308;28;802;-64
2021/12/13 01:42:57;;;;;;;;;;;;;;;15.77;65.14;102125.66;1053358;28;689;-64
2021/12/13 01:43:48;;;;;;;;;;;;;;;15.77;65.21;102122.97;1053251;28;716;-64
2021/12/13 01:44:39;;;;;;;;;;;;;;;15.76;65.39;102130.22;1048221;28;696;-65
2021/12/13 01:45:29;;;;;;;;;;;;;;;15.77;64.99;102133.72;1048925;28;649;-64
2021/12/13 01:46:19;;;;;;;;;;;;;;;15.76;65.08;102130.22;1052996;28;1807;-64
2021/12/13 01:47:10;;;;;;;;;;;;;;;15.78;65.21;102124.69;1057937;28;655;-63
2021/12/13 01:48:00;;;;;;;;;;;;;;;15.78;65.19;102127.38;1058165;28;680;-63
2021/12/13 01:48:52;;;;;;;;;;;;;;;15.76;65.29;102121.28;1057027;28;640;-63
2021/12/13 01:49:42;;;;;;;;;;;;;;;15.76;64.97;102123.97;1056873;28;704;-63
2021/12/13 01:50:36;;;;;;;;;;;;;;;15.76;65.02;102119.47;1057829;28;851;-63
2021/12/13 01:51:27;;;;;;;;;;;;;;;15.75;65.14;102125.78;1058006;28;692;-63
2021/12/13 01:52:17;;;;;;;;;;;;;;;15.74;65.53;102115.16;1054200;28;1924;-64
2021/12/13 01:53:07;;;;;;;;;;;;;;;15.74;65.25;102123.22;1053497;28;633;-64
2021/12/13 01:53:58;;;;;;;;;;;;;;;15.75;65.19;102124.94;1053740;28;645;-63
2021/12/13 01:54:48;;;;;;;;;;;;;;;15.75;65.08;102122.25;1054659;28;821;-63
2021/12/13 01:55:40;;;;;;;;;;;;;;;15.74;65.23;102126.75;1053185;28;645;-64
2021/12/13 01:57:39;;;;;;;;;;;;;;;15.75;64.95;102123.09;1053452;28;761;-62
2021/12/13 02:00:33;;;;;;;;;;;;;;;15.74;65.52;102125.91;1054201;28;672;-63
2021/12/13 02:01:24;;;;;;;;;;;;;;;15.73;65.05;102127.72;1054014;28;680;-63
2021/12/13 02:02:14;;;;;;;;;;;;;;;15.72;65.11;102126.00;1054145;28;634;-62
2021/12/13 02:03:05;;;;;;;;;;;;;;;15.73;65.22;102127.72;1053535;28;761;-63
2021/12/13 02:03:55;;;;;;;;;;;;;;;15.72;65.35;102122.44;1054647;28;668;-63
2021/12/13 02:04:46;;;;;;;;;;;;;;;15.71;65.12;102126.94;1053564;28;688;-62
2021/12/13 02:05:36;;;;;;;;;;;;;;;15.72;65.02;102126.00;1053768;28;728;-62
2021/12/13 02:06:27;;;;;;;;;;;;;;;15.72;65.01;102127.81;1055248;28;1813;-62
2021/12/13 02:07:17;;;;;;;;;;;;;;;15.71;65.30;102129.63;1057772;28;1948;-62
2021/12/13 02:08:07;;;;;;;;;;;;;;;15.73;65.45;102132.22;1057350;28;1951;-63
2021/12/13 02:08:58;;;;;;;;;;;;;;;15.72;65.58;102128.69;1057785;28;812;-62
2021/12/13 02:09:48;;;;;;;;;;;;;;;15.71;65.46;102136.84;1057608;28;637;-62
2021/12/13 02:10:39;;;;;;;;;;;;;;;15.71;65.45;102131.47;1057664;28;675;-62
2021/12/13 02:11:29;;;;;;;;;;;;;;;15.71;65.62;102137.69;1057922;28;798;-62
2021/12/13 02:12:19;;;;;;;;;;;;;;;15.71;65.33;102136.84;1057815;28;676;-62
2021/12/13 02:13:10;;;;;;;;;;;;;;;15.70;65.59;102137.81;1057910;28;882;-62
2021/12/13 02:14:10;;;;;;;;;;;;;;;15.71;65.20;102142.22;1057665;28;676;-63
2021/12/13 02:17:23;;;;;;;;;;;;;;;15.70;65.35;102145.88;1058277;28;829;-63
2021/12/13 02:18:13;;;;;;;;;;;;;;;15.70;65.29;102129.75;1057600;28;720;-63
2021/12/13 02:19:04;;;;;;;;;;;;;;;15.70;65.17;102132.44;1057898;28;680;-64
2021/12/13 02:19:57;;;;;;;;;;;;;;;15.70;65.28;102132.44;1057930;28;1057;-64
2021/12/13 02:20:48;;;;;;;;;;;;;;;15.69;65.50;102131.56;1057629;28;672;-64
2021/12/13 02:21:38;;;;;;;;;;;;;;;15.68;65.43;102124.47;1053984;28;776;-63
2021/12/13 02:22:28;;;;;;;;;;;;;;;15.69;65.25;102123.50;1054539;28;905;-63
2021/12/13 02:23:19;;;;;;;;;;;;;;;15.68;65.59;102121.78;1054728;28;625;-63
2021/12/13 02:24:09;;;;;;;;;;;;;;;15.68;65.21;102121.78;1054583;28;707;-63
2021/12/13 02:25:00;;;;;;;;;;;;;;;15.68;65.36;102119.09;1054432;28;1012;-63
2021/12/13 02:25:50;;;;;;;;;;;;;;;15.68;65.12;102128.97;1054591;28;733;-63
2021/12/13 02:26:41;;;;;;;;;;;;;;;15.68;65.37;102126.28;1054716;28;676;-63
2021/12/13 02:27:31;;;;;;;;;;;;;;;15.68;65.40;102127.16;1054543;28;1930;-62
2021/12/13 02:28:21;;;;;;;;;;;;;;;15.68;65.58;102121.78;1054675;28;652;-64
2021/12/13 02:29:12;;;;;;;;;;;;;;;15.68;65.56;102120.91;1054615;28;620;-65
2021/12/13 02:30:02;;;;;;;;;;;;;;;15.67;65.51;102127.25;1054546;28;822;-65
2021/12/13 02:30:54;;;;;;;;;;;;;;;15.67;65.49;102119.19;1054011;28;624;-65
2021/12/13 02:31:44;;;;;;;;;;;;;;;15.66;65.04;102117.47;1054285;28;710;-65
2021/12/13 02:32:35;;;;;;;;;;;;;;;15.67;65.45;102122.75;1054324;28;719;-64
2021/12/13 02:33:26;;;;;;;;;;;;;;;15.66;65.37;102114.78;1054000;28;668;-64
2021/12/13 02:34:16;;;;;;;;;;;;;;;15.66;65.18;102117.47;1054116;28;816;-65
2021/12/13 02:35:07;;;;;;;;;;;;;;;15.65;65.64;102119.28;1054003;28;692;-65
2021/12/13 02:35:57;;;;;;;;;;;;;;;15.65;65.46;102121.97;1053971;28;709;-65
2021/12/13 02:36:47;;;;;;;;;;;;;;;15.66;65.11;102122.84;1053974;28;765;-65
2021/12/13 02:37:38;;;;;;;;;;;;;;;15.65;65.24;102121.97;1058657;28;715;-65
2021/12/13 02:38:28;;;;;;;;;;;;;;;15.66;65.39;102117.47;1057802;28;770;-65
2021/12/13 02:39:19;;;;;;;;;;;;;;;15.65;65.32;102121.09;1054228;28;707;-65
2021/12/13 02:40:09;;;;;;;;;;;;;;;15.65;65.63;102123.78;1054120;28;734;-65
2021/12/13 02:40:59;;;;;;;;;;;;;;;15.65;65.47;102121.09;1053919;28;684;-64
2021/12/13 02:41:50;;;;;;;;;;;;;;;15.65;65.29;102121.97;1054013;28;683;-65
2021/12/13 02:42:41;;;;;;;;;;;;;;;15.65;65.29;102123.78;1053860;28;630;-65
2021/12/13 02:43:31;;;;;;;;;;;;;;;15.63;65.40;102122.06;1054073;28;665;-65
2021/12/13 02:44:22;;;;;;;;;;;;;;;15.65;65.50;102123.78;1053948;28;624;-65
2021/12/13 02:45:14;;;;;;;;;;;;;;;15.65;65.62;102121.09;1054646;28;727;-64
2021/12/13 02:46:05;;;;;;;;;;;;;;;15.64;65.49;102120.25;1054610;28;651;-64
2021/12/13 02:46:55;;;;;;;;;;;;;;;15.63;65.81;102118.53;1054339;28;1887;-64
2021/12/13 02:47:46;;;;;;;;;;;;;;;15.63;65.56;102121.22;1050593;28;688;-64
2021/12/13 02:48:36;;;;;;;;;;;;;;;15.63;65.43;102123.91;1053749;28;860;-64
2021/12/13 02:49:26;;;;;;;;;;;;;;;15.61;65.58;102124.00;1053902;28;657;-64
2021/12/13 02:50:17;;;;;;;;;;;;;;;15.62;65.62;102117.66;1054156;28;668;-64
2021/12/13 02:51:07;;;;;;;;;;;;;;;15.63;65.65;102123.91;1054451;28;1049;-64
2021/12/13 02:51:58;;;;;;;;;;;;;;;15.62;65.21;102120.34;1054078;28;857;-64
2021/12/13 02:52:48;;;;;;;;;;;;;;;15.60;65.25;102122.28;1054041;28;708;-64
2021/12/13 02:53:38;;;;;;;;;;;;;;;15.61;65.37;102123.13;1053915;28;684;-65
2021/12/13 02:54:29;;;;;;;;;;;;;;;15.61;65.65;102129.38;1054002;28;725;-64
2021/12/13 02:55:20;;;;;;;;;;;;;;;15.61;65.75;102126.69;1054670;28;1781;-64
2021/12/13 02:56:10;;;;;;;;;;;;;;;15.60;65.84;102126.78;1055995;28;1864;-64
2021/12/13 02:57:00;;;;;;;;;;;;;;;15.61;65.71;102131.19;1057492;28;737;-64
2021/12/13 02:57:51;;;;;;;;;;;;;;;15.61;65.41;102132.06;1057466;28;956;-64
2021/12/13 02:58:41;;;;;;;;;;;;;;;15.60;65.67;102122.28;1057478;28;641;-64
2021/12/13 02:59:32;;;;;;;;;;;;;;;15.60;65.37;102132.16;1057499;28;704;-63
2021/12/13 03:00:22;;;;;;;;;;;;;;;15.60;65.30;102130.31;1057370;28;795;-63
2021/12/13 03:01:13;;;;;;;;;;;;;;;15.59;65.83;102125.91;1057125;28;734;-64
2021/12/13 03:02:03;;;;;;;;;;;;;;;15.60;65.79;102129.47;1056479;28;661;-63
2021/12/13 03:02:53;;;;;;;;;;;;;;;15.59;65.54;102125.06;1058391;28;632;-63
2021/12/13 03:03:44;;;;;;;;;;;;;;;15.59;65.76;102128.59;1058780;28;841;-63
2021/12/13 03:04:34;;;;;;;;;;;;;;;15.58;65.32;102129.59;1057356;28;696;-63
2021/12/13 03:05:25;;;;;;;;;;;;;;;15.59;65.37;102133.97;1056599;28;769;-63
2021/12/13 03:06:15;;;;;;;;;;;;;;;15.58;65.47;102132.28;1058496;28;628;-64
2021/12/13 03:07:05;;;;;;;;;;;;;;;15.59;65.37;102133.13;1058659;28;723;-64
2021/12/13 03:07:56;;;;;;;;;;;;;;;15.58;65.72;102134.09;1057539;28;728;-64
2021/12/13 03:08:46;;;;;;;;;;;;;;;15.58;65.29;102131.41;1054418;28;679;-64
2021/12/13 03:09:37;;;;;;;;;;;;;;;15.57;65.62;102130.56;1053808;28;768;-64
2021/12/13 03:10:27;;;;;;;;;;;;;;;15.56;65.81;102123.47;1054335;28;680;-64
2021/12/13 03:11:23;;;;;;;;;;;;;;;15.56;65.76;102128.84;1054540;28;703;-64
2021/12/13 03:12:13;;;;;;;;;;;;;;;15.57;65.39;102129.69;1049835;28;677;-64
2021/12/13 03:13:03;;;;;;;;;;;;;;;15.56;65.34;102126.13;1048692;28;1030;-64
2021/12/13 03:13:54;;;;;;;;;;;;;;;15.56;65.63;102128.84;1052724;28;737;-64
2021/12/13 03:14:44;;;;;;;;;;;;;;;15.57;65.55;102127.00;1049843;28;646;-64
2021/12/13 03:15:35;;;;;;;;;;;;;;;15.57;65.46;102133.25;1048814;28;715;-64
2021/12/13 03:16:25;;;;;;;;;;;;;;;15.56;65.79;102131.50;1052759;28;1289;-64
2021/12/13 03:17:16;;;;;;;;;;;;;;;15.56;65.81;102134.19;1054561;28;726;-64
2021/12/13 03:18:06;;;;;;;;;;;;;;;15.56;65.41;102128.84;1054442;28;994;-64
2021/12/13 03:18:57;;;;;;;;;;;;;;;15.57;65.34;102141.31;1049847;28;723;-64
2021/12/13 03:19:47;;;;;;;;;;;;;;;15.56;65.63;102134.19;1048880;28;735;-65
2021/12/13 03:20:37;;;;;;;;;;;;;;;15.56;65.73;102127.97;1052440;28;640;-64
2021/12/13 03:21:28;;;;;;;;;;;;;;;15.55;65.41;102137.84;1049919;28;632;-64
2021/12/13 03:22:19;;;;;;;;;;;;;;;15.56;65.33;102131.50;1049715;28;1973;-64
2021/12/13 03:23:09;;;;;;;;;;;;;;;15.56;65.55;102133.34;1057360;28;649;-64
2021/12/13 03:24:00;;;;;;;;;;;;;;;15.56;65.33;102134.19;1057230;28;608;-64
2021/12/13 03:24:51;;;;;;;;;;;;;;;15.55;65.73;102127.09;1057258;28;810;-64
2021/12/13 03:25:41;;;;;;;;;;;;;;;15.55;65.54;102136.94;1057529;28;708;-64
2021/12/13 03:26:31;;;;;;;;;;;;;;;15.55;65.29;102134.28;1057289;28;750;-65
2021/12/13 03:27:22;;;;;;;;;;;;;;;15.55;65.73;102132.47;1057461;28;1909;-64
2021/12/13 03:28:12;;;;;;;;;;;;;;;15.55;65.28;102132.47;1056822;28;1510;-64
2021/12/13 03:29:03;;;;;;;;;;;;;;;15.55;65.64;102132.47;1058288;28;665;-64
2021/12/13 03:29:53;;;;;;;;;;;;;;;15.54;65.34;102128.03;1058726;28;746;-64
2021/12/13 03:30:43;;;;;;;;;;;;;;;15.54;65.67;102125.34;1055343;28;1878;-64
2021/12/13 03:31:34;;;;;;;;;;;;;;;15.54;65.67;102130.72;1053260;28;684;-64
2021/12/13 03:32:25;;;;;;;;;;;;;;;15.54;65.42;102125.34;1053639;28;641;-64
2021/12/13 03:33:15;;;;;;;;;;;;;;;15.53;65.39;102128.13;1053186;28;664;-65
2021/12/13 03:34:05;;;;;;;;;;;;;;;15.53;65.60;102134.38;1053127;28;673;-65
2021/12/13 03:34:56;;;;;;;;;;;;;;;15.53;65.35;102139.75;1053083;28;788;-65
2021/12/13 03:35:46;;;;;;;;;;;;;;;15.52;65.39;102127.25;1053327;28;689;-63
2021/12/13 03:36:37;;;;;;;;;;;;;;;15.53;65.54;102128.13;1053594;28;775;-65
2021/12/13 03:37:27;;;;;;;;;;;;;;;15.52;65.55;102129.94;1052942;28;692;-63
2021/12/13 03:38:17;;;;;;;;;;;;;;;15.53;65.82;102129.00;1052829;28;740;-63
2021/12/13 03:39:08;;;;;;;;;;;;;;;15.52;65.71;102132.63;1053402;28;843;-63
2021/12/13 03:39:59;;;;;;;;;;;;;;;15.53;65.51;102130.81;1053438;28;728;-63
2021/12/13 03:40:50;;;;;;;;;;;;;;;15.52;65.51;102129.94;1053121;28;795;-63
2021/12/13 03:41:40;;;;;;;;;;;;;;;15.52;65.52;102127.25;1053761;28;806;-63
2021/12/13 03:42:30;;;;;;;;;;;;;;;15.52;65.74;102131.78;1053655;28;688;-63
2021/12/13 03:43:21;;;;;;;;;;;;;;;15.52;66.00;102121.91;1053746;28;751;-63
2021/12/13 03:44:11;;;;;;;;;;;;;;;15.51;65.32;102122.84;1054769;28;722;-63
2021/12/13 03:45:02;;;;;;;;;;;;;;;15.51;65.62;102120.16;1053571;28;833;-64
2021/12/13 03:45:52;;;;;;;;;;;;;;;15.51;65.69;102116.63;1053689;28;700;-63
2021/12/13 03:46:43;;;;;;;;;;;;;;;15.52;65.85;102121.03;1053634;28;662;-63
2021/12/13 03:47:35;;;;;;;;;;;;;;;15.51;65.81;102125.53;1053600;28;2307;-63
2021/12/13 03:48:26;;;;;;;;;;;;;;;15.52;65.69;102123.72;1053605;28;673;-63
2021/12/13 03:49:16;;;;;;;;;;;;;;;15.51;65.85;102120.16;1053673;28;732;-63
2021/12/13 03:50:08;;;;;;;;;;;;;;;15.51;65.88;102119.31;1053595;28;633;-63
2021/12/13 03:50:59;;;;;;;;;;;;;;;15.50;66.00;102123.81;1057807;28;1745;-63
2021/12/13 03:51:49;;;;;;;;;;;;;;;15.50;65.66;102123.81;1058488;28;744;-63
2021/12/13 03:52:40;;;;;;;;;;;;;;;15.49;65.88;102127.47;1057371;28;687;-64
2021/12/13 03:53:30;;;;;;;;;;;;;;;15.50;65.96;102122.94;1057463;28;746;-63
2021/12/13 03:54:21;;;;;;;;;;;;;;;15.50;66.00;102121.13;1057379;28;614;-64
2021/12/13 03:55:11;;;;;;;;;;;;;;;15.48;65.94;102125.72;1057452;28;746;-63
2021/12/13 03:56:02;;;;;;;;;;;;;;;15.50;66.07;102125.63;1057141;28;632;-63
2021/12/13 03:56:53;;;;;;;;;;;;;;;15.50;66.00;102125.63;1057216;28;625;-64
2021/12/13 03:57:43;;;;;;;;;;;;;;;15.50;65.43;102122.94;1056542;28;817;-63
2021/12/13 03:58:33;;;;;;;;;;;;;;;15.49;65.92;102132.84;1058152;28;676;-64
2021/12/13 03:59:24;;;;;;;;;;;;;;;15.49;65.68;102127.47;1058349;28;1050;-63
2021/12/13 04:00:14;;;;;;;;;;;;;;;15.49;66.09;102126.59;1057137;28;712;-64
2021/12/13 04:01:05;;;;;;;;;;;;;;;15.49;65.76;102123.91;1057121;28;804;-65
2021/12/13 04:01:55;;;;;;;;;;;;;;;15.48;65.80;102123.03;1057311;28;813;-64
2021/12/13 04:02:46;;;;;;;;;;;;;;;15.48;65.86;102119.50;1057300;28;672;-63
2021/12/13 04:03:36;;;;;;;;;;;;;;;15.48;65.61;102124.88;1057347;28;739;-62
2021/12/13 04:04:26;;;;;;;;;;;;;;;15.48;65.99;102124.88;1057140;28;661;-63
2021/12/13 04:05:17;;;;;;;;;;;;;;;15.47;66.09;102124.00;1053843;28;676;-63
2021/12/13 04:06:07;;;;;;;;;;;;;;;15.48;66.04;102127.56;1053545;28;664;-63
2021/12/13 04:06:58;;;;;;;;;;;;;;;15.47;65.78;102125.84;1053692;28;636;-63
2021/12/13 04:07:48;;;;;;;;;;;;;;;15.46;65.93;102116.91;1053590;28;696;-64
2021/12/13 04:08:39;;;;;;;;;;;;;;;15.47;65.84;102118.63;1053551;28;633;-64
2021/12/13 04:09:29;;;;;;;;;;;;;;;15.47;66.02;102118.63;1053681;28;661;-64
2021/12/13 04:10:19;;;;;;;;;;;;;;;15.46;65.79;102107.97;1053566;28;795;-64
2021/12/13 04:11:10;;;;;;;;;;;;;;;15.46;65.69;102116.03;1053678;28;696;-64
2021/12/13 04:12:00;;;;;;;;;;;;;;;15.46;65.74;102113.34;1053544;28;687;-64
2021/12/13 04:12:52;;;;;;;;;;;;;;;15.46;65.58;102119.59;1053117;28;1027;-63
2021/12/13 04:13:43;;;;;;;;;;;;;;;15.46;65.87;102111.53;1053519;28;637;-63
2021/12/13 04:14:36;;;;;;;;;;;;;;;15.45;65.81;102114.31;1053629;28;756;-63
2021/12/13 04:15:31;;;;;;;;;;;;;;;15.46;65.97;102102.63;1053600;28;692;-64
2021/12/13 04:16:30;;;;;;;;;;;;;;;15.46;65.94;102113.34;1054006;28;1262;-65
2021/12/13 04:17:23;;;;;;;;;;;;;;;15.46;65.69;102113.34;1053431;28;665;-64
2021/12/13 04:18:27;;;;;;;;;;;;;;;15.45;66.27;102109.81;1049755;28;767;-64
2021/12/13 04:19:17;;;;;;;;;;;;;;;15.44;66.19;102113.44;1053476;28;684;-65
2021/12/13 04:20:08;;;;;;;;;;;;;;;15.45;66.09;102119.69;1057154;28;636;-64
2021/12/13 04:20:58;;;;;;;;;;;;;;;15.44;65.96;102113.44;1056186;28;1897;-64
2021/12/13 04:21:48;;;;;;;;;;;;;;;15.44;65.82;102110.78;1053449;28;733;-64
2021/12/13 04:22:39;;;;;;;;;;;;;;;15.44;65.66;102108.09;1053469;28;758;-64
2021/12/13 04:23:29;;;;;;;;;;;;;;;15.44;66.08;102110.78;1053629;28;679;-64
2021/12/13 04:24:20;;;;;;;;;;;;;;;15.44;66.20;102113.44;1053647;28;629;-64
2021/12/13 04:25:10;;;;;;;;;;;;;;;15.44;65.94;102113.44;1053548;28;835;-63
2021/12/13 04:26:01;;;;;;;;;;;;;;;15.44;65.80;102112.59;1053478;28;713;-63
2021/12/13 04:26:51;;;;;;;;;;;;;;;15.43;66.03;102114.41;1053535;28;820;-64
2021/12/13 04:27:41;;;;;;;;;;;;;;;15.43;66.03;102117.09;1053452;28;1913;-64
2021/12/13 04:28:32;;;;;;;;;;;;;;;15.42;65.82;102110.00;1053522;28;786;-64
2021/12/13 04:29:22;;;;;;;;;;;;;;;15.42;65.82;102110.00;1053678;28;751;-64
2021/12/13 04:30:13;;;;;;;;;;;;;;;15.42;65.98;102112.69;1053146;28;719;-64
2021/12/13 04:31:03;;;;;;;;;;;;;;;15.42;66.12;102107.31;1054293;28;966;-63
2021/12/13 04:31:54;;;;;;;;;;;;;;;15.42;66.23;102109.13;1053214;28;648;-64
2021/12/13 04:32:44;;;;;;;;;;;;;;;15.41;65.62;102112.78;1053899;28;680;-64
2021/12/13 04:33:35;;;;;;;;;;;;;;;15.41;65.70;102110.97;1053613;28;700;-64
2021/12/13 04:34:25;;;;;;;;;;;;;;;15.41;66.31;102112.78;1053523;28;691;-64
2021/12/13 04:35:15;;;;;;;;;;;;;;;15.41;65.93;102115.47;1053323;28;789;-63
2021/12/13 04:36:07;;;;;;;;;;;;;;;15.41;65.73;102115.47;1053522;28;680;-63